sensor_id;sensor_type;location;lat;lon;timestamp;pressure;altitude;pressure_sealevel;temperature;humidity
7157;BME280;3620;49.862;8.758;2022-11-20T00:00:13;98810.88;;;4.79;100.00
7157;BME280;3620;49.862;8.758;2022-11-20T00:02:40;98803.06;;;4.79;100.00
7157;BME280;3620;49.862;8.758;2022-11-20T00:05:08;98804.03;;;4.75;100.00
7157;BME280;3620;49.862;8.758;2022-11-20T00:07:35;98800.38;;;4.82;100.00
7157;BME280;3620;49.862;8.758;2022-11-20T00:10:02;98798.66;;;4.81;100.00
7157;BME280;3620;49.862;8.758;2022-11-20T00:12:29;98799.56;;;4.80;100.00
7157;BME280;3620;49.862;8.758;2022-11-20T00:14:56;98800.44;;;4.79;100.00
7157;BME280;3620;49.862;8.758;2022-11-20T00:17:22;98793.44;;;4.81;100.00
7157;BME280;3620;49.862;8.758;2022-11-20T00:19:49;98789.94;;;4.82;100.00
7157;BME280;3620;49.862;8.758;2022-11-20T00:22:16;98786.63;;;4.77;100.00
7157;BME280;3620;49.862;8.758;2022-11-20T00:24:43;98789.28;;;4.75;100.00
7157;BME280;3620;49.862;8.758;2022-11-20T00:27:13;98794.22;;;4.84;100.00
7157;BME280;3620;49.862;8.758;2022-11-20T00:29:40;98793.34;;;4.84;100.00
7157;BME280;3620;49.862;8.758;2022-11-20T00:32:06;98788.03;;;4.87;100.00
7157;BME280;3620;49.862;8.758;2022-11-20T00:34:33;98779.41;;;4.85;100.00
7157;BME280;3620;49.862;8.758;2022-11-20T00:36:59;98780.22;;;4.87;100.00
7157;BME280;3620;49.862;8.758;2022-11-20T00:39:27;98783.69;;;4.87;100.00
7157;BME280;3620;49.862;8.758;2022-11-20T00:41:54;98775.84;;;4.89;100.00
7157;BME280;3620;49.862;8.758;2022-11-20T00:44:20;98780.09;;;4.91;100.00
7157;BME280;3620;49.862;8.758;2022-11-20T00:46:46;98780.94;;;4.92;100.00
7157;BME280;3620;49.862;8.758;2022-11-20T00:49:13;98787.88;;;4.93;100.00
7157;BME280;3620;49.862;8.758;2022-11-20T00:51:39;98781.06;;;4.89;100.00
7157;BME280;3620;49.862;8.758;2022-11-20T00:54:06;98776.81;;;4.85;100.00
7157;BME280;3620;49.862;8.758;2022-11-20T00:56:34;98770.72;;;4.86;100.00
7157;BME280;3620;49.862;8.758;2022-11-20T00:59:00;98769.63;;;4.93;100.00
7157;BME280;3620;49.862;8.758;2022-11-20T01:01:27;98771.38;;;4.92;100.00
7157;BME280;3620;49.862;8.758;2022-11-20T01:03:59;98772.13;;;4.96;100.00
7157;BME280;3620;49.862;8.758;2022-11-20T01:06:27;98773.06;;;4.95;100.00
7157;BME280;3620;49.862;8.758;2022-11-20T01:08:56;98769.63;;;4.93;100.00
7157;BME280;3620;49.862;8.758;2022-11-20T01:11:26;98776.59;;;4.92;100.00
7157;BME280;3620;49.862;8.758;2022-11-20T01:13:56;98773.94;;;4.94;100.00
7157;BME280;3620;49.862;8.758;2022-11-20T01:16:24;98774.13;;;4.88;100.00
7157;BME280;3620;49.862;8.758;2022-11-20T01:18:52;98777.72;;;4.84;100.00
7157;BME280;3620;49.862;8.758;2022-11-20T01:21:21;98771.72;;;4.80;100.00
7157;BME280;3620;49.862;8.758;2022-11-20T01:23:49;98778.88;;;4.74;100.00
7157;BME280;3620;49.862;8.758;2022-11-20T01:26:19;98783.41;;;4.69;100.00
7157;BME280;3620;49.862;8.758;2022-11-20T01:28:46;98784.22;;;4.69;100.00
7157;BME280;3620;49.862;8.758;2022-11-20T01:31:15;98782.56;;;4.67;100.00
7157;BME280;3620;49.862;8.758;2022-11-20T01:33:43;98779.94;;;4.67;100.00
7157;BME280;3620;49.862;8.758;2022-11-20T01:36:10;98776.72;;;4.59;100.00
7157;BME280;3620;49.862;8.758;2022-11-20T01:38:37;98772.47;;;4.56;100.00
7157;BME280;3620;49.862;8.758;2022-11-20T01:41:05;98775.72;;;4.64;100.00
7157;BME280;3620;49.862;8.758;2022-11-20T01:43:33;98772.97;;;4.69;100.00
7157;BME280;3620;49.862;8.758;2022-11-20T01:46:13;98776.38;;;4.71;100.00
7157;BME280;3620;49.862;8.758;2022-11-20T01:48:46;98763.22;;;4.75;100.00
7157;BME280;3620;49.862;8.758;2022-11-20T01:51:19;98773.72;;;4.72;100.00
7157;BME280;3620;49.862;8.758;2022-11-20T01:53:47;98768.59;;;4.69;100.00
7157;BME280;3620;49.862;8.758;2022-11-20T01:56:14;98765.16;;;4.69;100.00
7157;BME280;3620;49.862;8.758;2022-11-20T01:58:45;98755.44;;;4.74;100.00
7157;BME280;3620;49.862;8.758;2022-11-20T02:01:15;98755.28;;;4.80;100.00
7157;BME280;3620;49.862;8.758;2022-11-20T02:03:42;98751.75;;;4.81;100.00
7157;BME280;3620;49.862;8.758;2022-11-20T02:06:14;98755.09;;;4.86;100.00
7157;BME280;3620;49.862;8.758;2022-11-20T02:08:43;98755.00;;;4.89;100.00
7157;BME280;3620;49.862;8.758;2022-11-20T02:11:10;98752.34;;;4.90;100.00
7157;BME280;3620;49.862;8.758;2022-11-20T02:13:38;98761.03;;;4.91;100.00
7157;BME280;3620;49.862;8.758;2022-11-20T02:16:12;98755.09;;;4.86;100.00
7157;BME280;3620;49.862;8.758;2022-11-20T02:18:40;98755.94;;;4.86;100.00
7157;BME280;3620;49.862;8.758;2022-11-20T02:21:13;98753.38;;;4.85;100.00
7157;BME280;3620;49.862;8.758;2022-11-20T02:23:55;98745.47;;;4.88;100.00
7157;BME280;3620;49.862;8.758;2022-11-20T02:26:23;98749.88;;;4.86;100.00
7157;BME280;3620;49.862;8.758;2022-11-20T02:28:53;98746.34;;;4.87;100.00
7157;BME280;3620;49.862;8.758;2022-11-20T02:31:20;98748.16;;;4.85;100.00
7157;BME280;3620;49.862;8.758;2022-11-20T02:33:47;98739.38;;;4.89;100.00
7157;BME280;3620;49.862;8.758;2022-11-20T02:36:15;98743.75;;;4.87;100.00
7157;BME280;3620;49.862;8.758;2022-11-20T02:38:43;98737.94;;;4.79;100.00
7157;BME280;3620;49.862;8.758;2022-11-20T02:41:11;98746.47;;;4.84;100.00
7157;BME280;3620;49.862;8.758;2022-11-20T02:43:37;98737.84;;;4.82;100.00
7157;BME280;3620;49.862;8.758;2022-11-20T02:46:07;98737.72;;;4.85;100.00
7157;BME280;3620;49.862;8.758;2022-11-20T02:48:34;98741.25;;;4.84;100.00
7157;BME280;3620;49.862;8.758;2022-11-20T02:51:01;98733.47;;;4.82;100.00
7157;BME280;3620;49.862;8.758;2022-11-20T02:53:27;98733.53;;;4.81;100.00
7157;BME280;3620;49.862;8.758;2022-11-20T02:55:54;98739.53;;;4.83;100.00
7157;BME280;3620;49.862;8.758;2022-11-20T02:58:22;98736.03;;;4.84;100.00
7157;BME280;3620;49.862;8.758;2022-11-20T03:00:48;98741.19;;;4.85;100.00
7157;BME280;3620;49.862;8.758;2022-11-20T03:03:15;98749.88;;;4.86;100.00
7157;BME280;3620;49.862;8.758;2022-11-20T03:05:41;98740.19;;;4.89;100.00
7157;BME280;3620;49.862;8.758;2022-11-20T03:08:08;98737.56;;;4.91;100.00
7157;BME280;3620;49.862;8.758;2022-11-20T03:10:34;98739.16;;;4.95;100.00
7157;BME280;3620;49.862;8.758;2022-11-20T03:13:01;98740.84;;;4.97;100.00
7157;BME280;3620;49.862;8.758;2022-11-20T03:15:28;98737.28;;;5.00;100.00
7157;BME280;3620;49.862;8.758;2022-11-20T03:17:55;98745.91;;;5.02;100.00
7157;BME280;3620;49.862;8.758;2022-11-20T03:20:21;98747.59;;;5.03;100.00
7157;BME280;3620;49.862;8.758;2022-11-20T03:22:48;98744.25;;;4.99;100.00
7157;BME280;3620;49.862;8.758;2022-11-20T03:25:14;98745.78;;;5.05;100.00
7157;BME280;3620;49.862;8.758;2022-11-20T03:27:41;98751.00;;;5.05;100.00
7157;BME280;3620;49.862;8.758;2022-11-20T03:30:09;98739.78;;;5.03;100.00
7157;BME280;3620;49.862;8.758;2022-11-20T03:32:37;98741.44;;;5.05;100.00
7157;BME280;3620;49.862;8.758;2022-11-20T03:35:04;98744.00;;;5.07;100.00
7157;BME280;3620;49.862;8.758;2022-11-20T03:37:31;98738.78;;;5.07;100.00
7157;BME280;3620;49.862;8.758;2022-11-20T03:39:58;98736.09;;;5.10;100.00
7157;BME280;3620;49.862;8.758;2022-11-20T03:42:24;98736.13;;;5.08;100.00
7157;BME280;3620;49.862;8.758;2022-11-20T03:45:09;98737.44;;;4.94;100.00
7157;BME280;3620;49.862;8.758;2022-11-20T03:47:37;98734.16;;;4.89;100.00
7157;BME280;3620;49.862;8.758;2022-11-20T03:50:04;98736.59;;;4.93;100.00
7157;BME280;3620;49.862;8.758;2022-11-20T03:52:31;98737.84;;;4.82;100.00
7157;BME280;3620;49.862;8.758;2022-11-20T03:54:57;98742.78;;;4.91;100.00
7157;BME280;3620;49.862;8.758;2022-11-20T03:57:24;98743.06;;;4.82;100.00
7157;BME280;3620;49.862;8.758;2022-11-20T03:59:50;98743.34;;;4.73;100.00
7157;BME280;3620;49.862;8.758;2022-11-20T04:02:16;98731.97;;;4.75;100.00
7157;BME280;3620;49.862;8.758;2022-11-20T04:04:44;98734.38;;;4.81;100.00
7157;BME280;3620;49.862;8.758;2022-11-20T04:07:11;98727.44;;;4.82;100.00
7157;BME280;3620;49.862;8.758;2022-11-20T04:09:37;98729.09;;;4.55;100.00
7157;BME280;3620;49.862;8.758;2022-11-20T04:12:04;98731.88;;;4.18;100.00
7157;BME280;3620;49.862;8.758;2022-11-20T04:14:31;98735.09;;;3.97;100.00
7157;BME280;3620;49.862;8.758;2022-11-20T04:16:57;98739.06;;;3.78;100.00
7157;BME280;3620;49.862;8.758;2022-11-20T04:19:24;98737.91;;;3.56;100.00
7157;BME280;3620;49.862;8.758;2022-11-20T04:21:52;98735.97;;;3.98;100.00
7157;BME280;3620;49.862;8.758;2022-11-20T04:24:18;98737.19;;;3.83;100.00
7157;BME280;3620;49.862;8.758;2022-11-20T04:26:45;98735.66;;;3.76;100.00
7157;BME280;3620;49.862;8.758;2022-11-20T04:29:11;98736.63;;;3.72;100.00
7157;BME280;3620;49.862;8.758;2022-11-20T04:31:38;98728.25;;;3.61;100.00
7157;BME280;3620;49.862;8.758;2022-11-20T04:34:07;98727.31;;;3.63;100.00
7157;BME280;3620;49.862;8.758;2022-11-20T04:36:34;98718.53;;;3.67;100.00
7157;BME280;3620;49.862;8.758;2022-11-20T04:39:04;98708.88;;;3.72;100.00
7157;BME280;3620;49.862;8.758;2022-11-20T04:41:33;98711.03;;;3.89;100.00
7157;BME280;3620;49.862;8.758;2022-11-20T04:44:01;98709.06;;;3.97;100.00
7157;BME280;3620;49.862;8.758;2022-11-20T04:46:29;98705.25;;;4.10;100.00
7157;BME280;3620;49.862;8.758;2022-11-20T04:48:56;98695.69;;;4.11;100.00
7157;BME280;3620;49.862;8.758;2022-11-20T04:51:23;98697.91;;;4.24;100.00
7157;BME280;3620;49.862;8.758;2022-11-20T04:53:49;98710.06;;;4.22;100.00
7157;BME280;3620;49.862;8.758;2022-11-20T04:56:17;98706.38;;;4.00;100.00
7157;BME280;3620;49.862;8.758;2022-11-20T04:58:44;98707.34;;;3.96;100.00
7157;BME280;3620;49.862;8.758;2022-11-20T05:01:12;98709.38;;;3.87;100.00
7157;BME280;3620;49.862;8.758;2022-11-20T05:03:39;98717.44;;;3.76;100.00
7157;BME280;3620;49.862;8.758;2022-11-20T05:06:06;98712.19;;;3.79;100.00
7157;BME280;3620;49.862;8.758;2022-11-20T05:08:33;98704.13;;;3.88;100.00
7157;BME280;3620;49.862;8.758;2022-11-20T05:11:01;98711.56;;;4.00;100.00
7157;BME280;3620;49.862;8.758;2022-11-20T05:13:29;98711.25;;;4.12;100.00
7157;BME280;3620;49.862;8.758;2022-11-20T05:16:01;98705.41;;;4.04;100.00
7157;BME280;3620;49.862;8.758;2022-11-20T05:18:27;98711.88;;;4.20;100.00
7157;BME280;3620;49.862;8.758;2022-11-20T05:20:55;98708.03;;;4.33;100.00
7157;BME280;3620;49.862;8.758;2022-11-20T05:23:22;98706.25;;;4.35;100.00
7157;BME280;3620;49.862;8.758;2022-11-20T05:25:52;98707.41;;;4.25;100.00
7157;BME280;3620;49.862;8.758;2022-11-20T05:28:18;98710.00;;;4.25;100.00
7157;BME280;3620;49.862;8.758;2022-11-20T05:30:46;98707.72;;;4.15;100.00
7157;BME280;3620;49.862;8.758;2022-11-20T05:33:13;98699.13;;;4.11;100.00
7157;BME280;3620;49.862;8.758;2022-11-20T05:35:39;98696.06;;;3.97;100.00
7157;BME280;3620;49.862;8.758;2022-11-20T05:38:06;98698.53;;;4.02;100.00
7157;BME280;3620;49.862;8.758;2022-11-20T05:40:32;98701.97;;;4.02;100.00
7157;BME280;3620;49.862;8.758;2022-11-20T05:42:59;98703.69;;;4.03;100.00
7157;BME280;3620;49.862;8.758;2022-11-20T05:45:26;98695.00;;;4.04;100.00
7157;BME280;3620;49.862;8.758;2022-11-20T05:47:57;98696.78;;;4.02;100.00
7157;BME280;3620;49.862;8.758;2022-11-20T05:50:24;98696.88;;;3.99;100.00
7157;BME280;3620;49.862;8.758;2022-11-20T05:52:50;98695.84;;;4.05;100.00
7157;BME280;3620;49.862;8.758;2022-11-20T05:55:17;98688.16;;;4.00;100.00
7157;BME280;3620;49.862;8.758;2022-11-20T05:57:43;98689.94;;;3.98;100.00
7157;BME280;3620;49.862;8.758;2022-11-20T06:00:11;98679.53;;;3.98;100.00
7157;BME280;3620;49.862;8.758;2022-11-20T06:02:37;98687.16;;;4.06;100.00
7157;BME280;3620;49.862;8.758;2022-11-20T06:05:06;98680.91;;;4.11;100.00
7157;BME280;3620;49.862;8.758;2022-11-20T06:07:33;98680.91;;;4.11;100.00
7157;BME280;3620;49.862;8.758;2022-11-20T06:09:59;98687.81;;;4.12;100.00
7157;BME280;3620;49.862;8.758;2022-11-20T06:12:26;98687.81;;;4.12;100.00
7157;BME280;3620;49.862;8.758;2022-11-20T06:14:52;98686.03;;;4.14;100.00
7157;BME280;3620;49.862;8.758;2022-11-20T06:17:19;98692.41;;;4.33;100.00
7157;BME280;3620;49.862;8.758;2022-11-20T06:19:45;98703.69;;;4.34;100.00
7157;BME280;3620;49.862;8.758;2022-11-20T06:22:13;98692.00;;;4.18;100.00
7157;BME280;3620;49.862;8.758;2022-11-20T06:24:40;98689.38;;;4.19;100.00
7157;BME280;3620;49.862;8.758;2022-11-20T06:27:06;98671.75;;;4.27;100.00
7157;BME280;3620;49.862;8.758;2022-11-20T06:29:33;98671.63;;;4.32;100.00
7157;BME280;3620;49.862;8.758;2022-11-20T06:32:01;98680.31;;;4.32;100.00
7157;BME280;3620;49.862;8.758;2022-11-20T06:34:30;98684.69;;;4.30;100.00
7157;BME280;3620;49.862;8.758;2022-11-20T06:36:56;98687.03;;;4.39;100.00
7157;BME280;3620;49.862;8.758;2022-11-20T06:39:24;98684.31;;;4.44;100.00
7157;BME280;3620;49.862;8.758;2022-11-20T06:41:51;98692.78;;;4.51;100.00
7157;BME280;3620;49.862;8.758;2022-11-20T06:44:17;98701.41;;;4.53;100.00
7157;BME280;3620;49.862;8.758;2022-11-20T06:46:44;98701.34;;;4.54;100.00
7157;BME280;3620;49.862;8.758;2022-11-20T06:49:10;98705.69;;;4.54;100.00
7157;BME280;3620;49.862;8.758;2022-11-20T06:51:37;98705.53;;;4.60;100.00
7157;BME280;3620;49.862;8.758;2022-11-20T06:54:03;98701.16;;;4.60;100.00
7157;BME280;3620;49.862;8.758;2022-11-20T06:56:31;98704.66;;;4.59;100.00
7157;BME280;3620;49.862;8.758;2022-11-20T06:58:58;98712.69;;;4.52;100.00
7157;BME280;3620;49.862;8.758;2022-11-20T07:01:24;98699.81;;;4.47;100.00
7157;BME280;3620;49.862;8.758;2022-11-20T07:03:51;98702.94;;;4.58;100.00
7157;BME280;3620;49.862;8.758;2022-11-20T07:06:17;98706.94;;;4.70;100.00
7157;BME280;3620;49.862;8.758;2022-11-20T07:08:43;98711.97;;;4.76;100.00
7157;BME280;3620;49.862;8.758;2022-11-20T07:11:12;98710.16;;;4.78;100.00
7157;BME280;3620;49.862;8.758;2022-11-20T07:13:40;98707.22;;;4.61;100.00
7157;BME280;3620;49.862;8.758;2022-11-20T07:16:07;98711.53;;;4.62;100.00
7157;BME280;3620;49.862;8.758;2022-11-20T07:18:34;98718.63;;;4.57;100.00
7157;BME280;3620;49.862;8.758;2022-11-20T07:21:01;98724.75;;;4.26;100.00
7157;BME280;3620;49.862;8.758;2022-11-20T07:23:28;98718.50;;;4.32;100.00
7157;BME280;3620;49.862;8.758;2022-11-20T07:25:55;98726.31;;;4.01;100.00
7157;BME280;3620;49.862;8.758;2022-11-20T07:28:21;98727.44;;;3.91;100.00
7157;BME280;3620;49.862;8.758;2022-11-20T07:30:52;98728.53;;;3.84;100.00
7157;BME280;3620;49.862;8.758;2022-11-20T07:33:19;98728.72;;;4.09;100.00
7157;BME280;3620;49.862;8.758;2022-11-20T07:35:46;98726.06;;;4.10;100.00
7157;BME280;3620;49.862;8.758;2022-11-20T07:38:12;98723.03;;;4.25;100.00
7157;BME280;3620;49.862;8.758;2022-11-20T07:40:39;98722.72;;;4.36;100.00
7157;BME280;3620;49.862;8.758;2022-11-20T07:43:06;98726.25;;;4.33;100.00
7157;BME280;3620;49.862;8.758;2022-11-20T07:45:32;98704.28;;;4.43;100.00
7157;BME280;3620;49.862;8.758;2022-11-20T07:48:00;98715.03;;;4.31;100.00
7157;BME280;3620;49.862;8.758;2022-11-20T07:50:28;98718.28;;;4.39;100.00
7157;BME280;3620;49.862;8.758;2022-11-20T07:53:01;98716.28;;;4.47;100.00
7157;BME280;3620;49.862;8.758;2022-11-20T07:55:29;98715.22;;;4.55;100.00
7157;BME280;3620;49.862;8.758;2022-11-20T07:57:56;98737.66;;;4.29;100.00
7157;BME280;3620;49.862;8.758;2022-11-20T08:00:24;98734.78;;;4.38;100.00
7157;BME280;3620;49.862;8.758;2022-11-20T08:02:50;98744.13;;;4.45;100.00
7157;BME280;3620;49.862;8.758;2022-11-20T08:05:18;98753.47;;;4.53;100.00
7157;BME280;3620;49.862;8.758;2022-11-20T08:07:45;98757.03;;;4.50;100.00
7157;BME280;3620;49.862;8.758;2022-11-20T08:10:13;98755.22;;;4.52;100.00
7157;BME280;3620;49.862;8.758;2022-11-20T08:12:43;98756.81;;;4.58;100.00
7157;BME280;3620;49.862;8.758;2022-11-20T08:15:27;98758.63;;;4.54;100.00
7157;BME280;3620;49.862;8.758;2022-11-20T08:17:59;98757.69;;;4.57;100.00
7157;BME280;3620;49.862;8.758;2022-11-20T08:20:27;98760.09;;;4.63;100.00
7157;BME280;3620;49.862;8.758;2022-11-20T08:22:57;98761.56;;;4.43;100.00
7157;BME280;3620;49.862;8.758;2022-11-20T08:25:24;98761.13;;;4.28;100.00
7157;BME280;3620;49.862;8.758;2022-11-20T08:27:51;98758.91;;;4.14;100.00
7157;BME280;3620;49.862;8.758;2022-11-20T08:30:17;98763.34;;;4.11;100.00
7157;BME280;3620;49.862;8.758;2022-11-20T08:32:44;98768.44;;;4.14;100.00
7157;BME280;3620;49.862;8.758;2022-11-20T08:35:10;98767.75;;;4.07;100.00
7157;BME280;3620;49.862;8.758;2022-11-20T08:37:38;98766.16;;;4.03;100.00
7157;BME280;3620;49.862;8.758;2022-11-20T08:40:08;98757.78;;;4.24;100.00
7157;BME280;3620;49.862;8.758;2022-11-20T08:42:35;98765.66;;;4.21;100.00
7157;BME280;3620;49.862;8.758;2022-11-20T08:45:01;98758.41;;;4.32;100.00
7157;BME280;3620;49.862;8.758;2022-11-20T08:47:28;98766.84;;;4.40;100.00
7157;BME280;3620;49.862;8.758;2022-11-20T08:49:54;98770.00;;;4.52;100.00
7157;BME280;3620;49.862;8.758;2022-11-20T08:52:21;98773.50;;;4.51;100.00
7157;BME280;3620;49.862;8.758;2022-11-20T08:54:49;98768.28;;;4.51;100.00
7157;BME280;3620;49.862;8.758;2022-11-20T08:57:15;98776.72;;;4.59;100.00
7157;BME280;3620;49.862;8.758;2022-11-20T08:59:41;98771.06;;;4.74;100.00
7157;BME280;3620;49.862;8.758;2022-11-20T09:02:08;98764.28;;;4.97;100.00
7157;BME280;3620;49.862;8.758;2022-11-20T09:04:34;98762.38;;;5.02;100.00
7157;BME280;3620;49.862;8.758;2022-11-20T09:07:01;98751.13;;;5.02;100.00
7157;BME280;3620;49.862;8.758;2022-11-20T09:09:28;98754.13;;;5.16;100.00
7157;BME280;3620;49.862;8.758;2022-11-20T09:11:56;98752.97;;;5.25;100.00
7157;BME280;3620;49.862;8.758;2022-11-20T09:14:22;98754.41;;;5.07;100.00
7157;BME280;3620;49.862;8.758;2022-11-20T09:16:54;98752.31;;;5.46;100.00
7157;BME280;3620;49.862;8.758;2022-11-20T09:19:20;98754.34;;;5.62;100.00
7157;BME280;3620;49.862;8.758;2022-11-20T09:21:47;98763.38;;;5.52;100.00
7157;BME280;3620;49.862;8.758;2022-11-20T09:24:13;98759.47;;;5.39;100.00
7157;BME280;3620;49.862;8.758;2022-11-20T09:26:40;98767.09;;;5.45;100.00
7157;BME280;3620;49.862;8.758;2022-11-20T09:29:07;98769.19;;;5.34;100.00
7157;BME280;3620;49.862;8.758;2022-11-20T09:31:34;98758.91;;;5.30;100.00
7157;BME280;3620;49.862;8.758;2022-11-20T09:34:00;98769.97;;;5.38;100.00
7157;BME280;3620;49.862;8.758;2022-11-20T09:36:27;98774.41;;;5.34;100.00
7157;BME280;3620;49.862;8.758;2022-11-20T09:38:54;98768.81;;;5.46;100.00
7157;BME280;3620;49.862;8.758;2022-11-20T09:41:36;98770.31;;;5.53;100.00
7157;BME280;3620;49.862;8.758;2022-11-20T09:44:19;98770.56;;;5.72;100.00
7157;BME280;3620;49.862;8.758;2022-11-20T09:46:53;98778.31;;;5.73;100.00
7157;BME280;3620;49.862;8.758;2022-11-20T09:49:27;98779.59;;;5.62;100.00
7157;BME280;3620;49.862;8.758;2022-11-20T09:52:00;98776.38;;;5.80;100.00
7157;BME280;3620;49.862;8.758;2022-11-20T09:54:34;98774.25;;;5.93;100.00
7157;BME280;3620;49.862;8.758;2022-11-20T09:57:05;98774.91;;;5.71;100.00
7157;BME280;3620;49.862;8.758;2022-11-20T09:59:39;98773.09;;;5.73;100.00
7157;BME280;3620;49.862;8.758;2022-11-20T10:02:16;98763.09;;;5.61;100.00
7157;BME280;3620;49.862;8.758;2022-11-20T10:04:47;98766.78;;;5.54;100.00
7157;BME280;3620;49.862;8.758;2022-11-20T10:07:20;98763.47;;;5.49;100.00
7157;BME280;3620;49.862;8.758;2022-11-20T10:09:52;98762.28;;;5.59;100.00
7157;BME280;3620;49.862;8.758;2022-11-20T10:12:25;98765.09;;;5.53;100.00
7157;BME280;3620;49.862;8.758;2022-11-20T10:15:05;98763.88;;;5.63;100.00
7157;BME280;3620;49.862;8.758;2022-11-20T10:17:51;98757.56;;;5.70;100.00
7157;BME280;3620;49.862;8.758;2022-11-20T10:20:28;98756.06;;;5.63;100.00
7157;BME280;3620;49.862;8.758;2022-11-20T10:23:10;98749.97;;;5.64;100.00
7157;BME280;3620;49.862;8.758;2022-11-20T10:25:46;98753.25;;;5.69;100.00
7157;BME280;3620;49.862;8.758;2022-11-20T10:28:24;98748.81;;;5.71;100.00
7157;BME280;3620;49.862;8.758;2022-11-20T10:31:00;98740.84;;;5.76;100.00
7157;BME280;3620;49.862;8.758;2022-11-20T10:33:31;98743.59;;;5.71;100.00
7157;BME280;3620;49.862;8.758;2022-11-20T10:36:05;98747.22;;;5.67;100.00
7157;BME280;3620;49.862;8.758;2022-11-20T10:38:37;98743.41;;;5.77;100.00
7157;BME280;3620;49.862;8.758;2022-11-20T10:41:05;98752.78;;;5.83;100.00
7157;BME280;3620;49.862;8.758;2022-11-20T10:43:54;98741.41;;;5.85;100.00
7157;BME280;3620;49.862;8.758;2022-11-20T10:46:37;98734.56;;;5.81;100.00
7157;BME280;3620;49.862;8.758;2022-11-20T10:49:11;98737.44;;;5.74;100.00
7157;BME280;3620;49.862;8.758;2022-11-20T10:51:45;98733.38;;;5.65;100.00
7157;BME280;3620;49.862;8.758;2022-11-20T10:54:21;98726.63;;;5.60;100.00
7157;BME280;3620;49.862;8.758;2022-11-20T10:56:51;98725.97;;;5.53;100.00
7157;BME280;3620;49.862;8.758;2022-11-20T10:59:35;98732.00;;;5.55;100.00
7157;BME280;3620;49.862;8.758;2022-11-20T11:02:16;98733.81;;;5.53;100.00
7157;BME280;3620;49.862;8.758;2022-11-20T11:04:45;98727.66;;;5.54;100.00
7157;BME280;3620;49.862;8.758;2022-11-20T11:07:15;98725.97;;;5.53;100.00
7157;BME280;3620;49.862;8.758;2022-11-20T11:09:46;98725.38;;;5.45;100.00
7157;BME280;3620;49.862;8.758;2022-11-20T11:12:13;98721.16;;;5.41;100.00
7157;BME280;3620;49.862;8.758;2022-11-20T11:14:45;98721.88;;;5.46;100.00
7157;BME280;3620;49.862;8.758;2022-11-20T11:17:21;98720.78;;;5.52;100.00
7157;BME280;3620;49.862;8.758;2022-11-20T11:19:58;98711.31;;;5.49;100.00
7157;BME280;3620;49.862;8.758;2022-11-20T11:22:24;98711.44;;;5.46;100.00
7157;BME280;3620;49.862;8.758;2022-11-20T11:24:52;98702.44;;;5.55;100.00
7157;BME280;3620;49.862;8.758;2022-11-20T11:27:19;98694.50;;;5.58;100.00
7157;BME280;3620;49.862;8.758;2022-11-20T11:29:46;98690.28;;;5.54;100.00
7157;BME280;3620;49.862;8.758;2022-11-20T11:32:14;98687.44;;;5.61;100.00
7157;BME280;3620;49.862;8.758;2022-11-20T11:34:42;98693.44;;;5.63;100.00
7157;BME280;3620;49.862;8.758;2022-11-20T11:37:14;98683.56;;;5.73;100.00
7157;BME280;3620;49.862;8.758;2022-11-20T11:39:43;98686.19;;;5.71;100.00
7157;BME280;3620;49.862;8.758;2022-11-20T11:42:13;98687.50;;;5.84;100.00
7157;BME280;3620;49.862;8.758;2022-11-20T11:44:44;98695.00;;;5.93;100.00
7157;BME280;3620;49.862;8.758;2022-11-20T11:47:31;98697.53;;;5.97;100.00
7157;BME280;3620;49.862;8.758;2022-11-20T11:50:14;98692.94;;;6.03;100.00
7157;BME280;3620;49.862;8.758;2022-11-20T11:52:45;98688.56;;;6.04;100.00
7157;BME280;3620;49.862;8.758;2022-11-20T11:55:16;98686.13;;;5.99;100.00
7157;BME280;3620;49.862;8.758;2022-11-20T11:57:47;98686.06;;;6.01;100.00
7157;BME280;3620;49.862;8.758;2022-11-20T12:00:18;98688.81;;;5.98;100.00
7157;BME280;3620;49.862;8.758;2022-11-20T12:02:56;98680.75;;;6.04;100.00
7157;BME280;3620;49.862;8.758;2022-11-20T12:05:27;98665.25;;;5.99;100.00
7157;BME280;3620;49.862;8.758;2022-11-20T12:07:58;98664.47;;;5.96;100.00
7157;BME280;3620;49.862;8.758;2022-11-20T12:10:38;98671.19;;;6.03;100.00
7157;BME280;3620;49.862;8.758;2022-11-20T12:13:18;98667.41;;;6.11;100.00
7157;BME280;3620;49.862;8.758;2022-11-20T12:15:48;98665.53;;;6.15;100.00
7157;BME280;3620;49.862;8.758;2022-11-20T12:18:16;98672.25;;;6.22;100.00
7157;BME280;3620;49.862;8.758;2022-11-20T12:21:00;98668.38;;;6.32;100.00
7157;BME280;3620;49.862;8.758;2022-11-20T12:23:38;98673.94;;;6.23;100.00
7157;BME280;3620;49.862;8.758;2022-11-20T12:26:14;98662.75;;;6.19;100.00
7157;BME280;3620;49.862;8.758;2022-11-20T12:28:56;98666.84;;;6.26;100.00
7157;BME280;3620;49.862;8.758;2022-11-20T12:31:39;98664.97;;;6.30;100.00
7157;BME280;3620;49.862;8.758;2022-11-20T12:34:16;98668.38;;;6.32;100.00
7157;BME280;3620;49.862;8.758;2022-11-20T12:36:50;98667.66;;;6.28;100.00
7157;BME280;3620;49.862;8.758;2022-11-20T12:39:29;98660.94;;;6.21;100.00
7157;BME280;3620;49.862;8.758;2022-11-20T12:42:24;98649.88;;;6.15;100.00
7157;BME280;3620;49.862;8.758;2022-11-20T12:45:27;98644.31;;;6.24;100.00
7157;BME280;3620;49.862;8.758;2022-11-20T12:48:16;98645.56;;;6.37;100.00
7157;BME280;3620;49.862;8.758;2022-11-20T12:50:52;98654.63;;;6.27;100.00
7157;BME280;3620;49.862;8.758;2022-11-20T12:53:31;98652.19;;;6.22;100.00
7157;BME280;3620;49.862;8.758;2022-11-20T12:56:17;98646.50;;;6.34;100.00
7157;BME280;3620;49.862;8.758;2022-11-20T12:58:57;98647.28;;;6.59;100.00
7157;BME280;3620;49.862;8.758;2022-11-20T13:01:31;98645.41;;;6.63;100.00
7157;BME280;3620;49.862;8.758;2022-11-20T13:04:18;98649.84;;;6.83;100.00
7157;BME280;3620;49.862;8.758;2022-11-20T13:06:50;98641.31;;;6.99;100.00
7157;BME280;3620;49.862;8.758;2022-11-20T13:09:20;98647.59;;;6.95;100.00
7157;BME280;3620;49.862;8.758;2022-11-20T13:11:52;98644.47;;;7.07;100.00
7157;BME280;3620;49.862;8.758;2022-11-20T13:14:32;98643.38;;;7.13;100.00
7157;BME280;3620;49.862;8.758;2022-11-20T13:17:05;98632.22;;;7.29;100.00
7157;BME280;3620;49.862;8.758;2022-11-20T13:19:36;98639.56;;;7.42;100.00
7157;BME280;3620;49.862;8.758;2022-11-20T13:22:03;98628.56;;;7.54;100.00
7157;BME280;3620;49.862;8.758;2022-11-20T13:24:32;98635.75;;;7.69;100.00
7157;BME280;3620;49.862;8.758;2022-11-20T13:27:19;98629.59;;;7.70;100.00
7157;BME280;3620;49.862;8.758;2022-11-20T13:29:58;98619.78;;;7.75;100.00
7157;BME280;3620;49.862;8.758;2022-11-20T13:32:26;98606.13;;;7.87;100.00
7157;BME280;3620;49.862;8.758;2022-11-20T13:34:58;98596.97;;;7.97;100.00